createdAt,value
2023-04-15T00:03:34.501Z,10.39
2023-04-15T00:08:38.040Z,10.38
2023-04-15T00:13:41.981Z,10.33
2023-04-15T00:18:44.824Z,10.26
2023-04-15T00:23:52.613Z,10.17
2023-04-15T00:28:55.604Z,10.11
2023-04-15T00:33:58.633Z,10.08
2023-04-15T00:39:02.871Z,10.03
2023-04-15T00:44:07.182Z,9.98
2023-04-15T00:49:09.958Z,9.95
2023-04-15T00:54:12.973Z,9.93
2023-04-15T00:59:15.919Z,9.92
2023-04-15T01:04:18.816Z,9.92
2023-04-15T01:09:22.572Z,9.90
2023-04-15T01:14:25.919Z,9.82
2023-04-15T01:19:28.946Z,9.76
2023-04-15T01:24:33.293Z,9.73
2023-04-15T01:29:38.602Z,9.69
2023-04-15T01:34:41.396Z,9.67
2023-04-15T01:39:44.754Z,9.63
2023-04-15T01:44:47.784Z,9.59
2023-04-15T01:49:50.521Z,9.56
2023-04-15T01:54:53.248Z,9.55
2023-04-15T01:59:56.129Z,9.53
2023-04-15T02:05:00.605Z,9.53
2023-04-15T02:10:04.151Z,9.53
2023-04-15T02:15:08.977Z,9.50
2023-04-15T02:20:12.059Z,9.48
2023-04-15T02:25:17.022Z,9.46
2023-04-15T02:30:19.969Z,9.45
2023-04-15T02:35:25.862Z,9.45
2023-04-15T02:40:29.068Z,9.46
2023-04-15T02:45:31.929Z,9.44
2023-04-15T02:50:34.761Z,9.44
2023-04-15T02:55:37.522Z,9.42
2023-04-15T03:00:40.487Z,9.41
2023-04-15T03:05:44.662Z,9.39
2023-04-15T03:10:47.656Z,9.39
2023-04-15T03:15:50.732Z,9.38
2023-04-15T03:20:53.680Z,9.38
2023-04-15T03:25:58.027Z,9.37
2023-04-15T03:31:01.029Z,9.37
2023-04-15T03:36:04.142Z,9.36
2023-04-15T03:41:07.583Z,9.35
2023-04-15T03:46:10.357Z,9.34
2023-04-15T03:51:13.163Z,9.32
2023-04-15T03:56:16.008Z,9.32
2023-04-15T04:01:19.496Z,9.32
2023-04-15T04:06:22.517Z,9.31
2023-04-15T04:11:25.307Z,9.29
2023-04-15T04:16:28.142Z,9.26
2023-04-15T04:21:31.603Z,9.26
2023-04-15T04:26:34.396Z,9.23
2023-04-15T04:31:37.276Z,9.22
2023-04-15T04:36:40.051Z,9.22
2023-04-15T04:41:42.874Z,9.22
2023-04-15T04:46:45.812Z,9.20
2023-04-15T04:51:48.967Z,9.20
2023-04-15T04:56:51.814Z,9.19
2023-04-15T05:01:54.755Z,9.19
2023-04-15T05:06:59.311Z,9.18
2023-04-15T05:12:03.036Z,9.19
2023-04-15T05:17:05.859Z,9.19
2023-04-15T05:22:08.779Z,9.21
2023-04-15T05:27:11.860Z,9.22
2023-04-15T05:32:14.801Z,9.24
2023-04-15T05:37:17.541Z,9.24
2023-04-15T05:42:20.394Z,9.24
2023-04-15T05:47:23.883Z,9.25
2023-04-15T05:52:27.398Z,9.24
2023-04-15T05:57:30.188Z,9.21
2023-04-15T06:02:33.468Z,9.20
2023-04-15T06:07:37.629Z,9.21
2023-04-15T06:12:40.467Z,9.21
2023-04-15T06:17:43.345Z,9.23
2023-04-15T06:22:46.156Z,9.25
2023-04-15T06:27:48.980Z,9.25
2023-04-15T06:32:52.737Z,9.24
2023-04-15T06:37:55.726Z,9.26
2023-04-15T06:42:58.544Z,9.29
2023-04-15T06:48:01.349Z,9.29
2023-04-15T06:53:04.156Z,9.30
2023-04-15T06:58:07.366Z,9.34
2023-04-15T07:03:11.428Z,9.35
2023-04-15T07:08:14.758Z,9.36
2023-04-15T07:13:17.569Z,9.37
2023-04-15T07:18:20.657Z,9.38
2023-04-15T07:23:23.633Z,9.40
2023-04-15T07:28:26.667Z,9.40
2023-04-15T07:33:29.538Z,9.38
2023-04-15T07:38:32.249Z,9.37
2023-04-15T07:43:35.060Z,9.38
2023-04-15T07:48:37.852Z,9.42
2023-04-15T07:53:40.803Z,9.43
2023-04-15T07:58:43.606Z,9.44
2023-04-15T08:03:47.289Z,9.45
2023-04-15T08:08:50.331Z,9.47
2023-04-15T08:13:53.349Z,9.49
2023-04-15T08:18:56.595Z,9.54
2023-04-15T08:24:00.303Z,9.63
2023-04-15T08:29:03.805Z,9.73
2023-04-15T08:34:06.823Z,9.79
2023-04-15T08:39:09.732Z,9.83
2023-04-15T08:44:12.531Z,9.85
2023-04-15T08:49:15.321Z,9.93
2023-04-15T08:54:18.126Z,9.98
2023-04-15T08:59:22.212Z,10.06
2023-04-15T09:04:25.081Z,10.08
2023-04-15T09:09:27.983Z,10.09
2023-04-15T09:14:32.779Z,10.13
2023-04-15T09:19:35.471Z,10.20
2023-04-15T09:24:40.957Z,10.21
2023-04-15T09:29:43.696Z,10.24
2023-04-15T09:34:46.884Z,10.25
2023-04-15T09:39:52.068Z,10.24
2023-04-15T09:44:55.171Z,10.26
2023-04-15T09:49:59.559Z,10.35
2023-04-15T09:55:02.705Z,10.40
2023-04-15T10:00:08.886Z,10.40
2023-04-15T10:05:12.929Z,10.50
2023-04-15T10:10:16.264Z,10.58
2023-04-15T10:15:19.166Z,10.66
2023-04-15T10:20:22.203Z,10.71
2023-04-15T10:25:25.519Z,10.79
2023-04-15T10:30:28.422Z,10.73
2023-04-15T10:35:32.273Z,10.71
2023-04-15T10:40:35.472Z,10.73
2023-04-15T10:45:38.345Z,10.68
2023-04-15T10:50:41.074Z,10.56
2023-04-15T10:55:43.861Z,10.47
2023-04-15T11:00:52.535Z,10.48
2023-04-15T11:05:56.431Z,10.43
2023-04-15T11:10:59.217Z,10.31
2023-04-15T11:16:02.856Z,10.18
2023-04-15T11:21:07.312Z,10.14
2023-04-15T11:26:12.331Z,10.15
2023-04-15T11:31:20.245Z,10.22
2023-04-15T11:36:27.893Z,10.30
2023-04-15T11:41:31.126Z,10.44
2023-04-15T11:46:33.929Z,10.75
2023-04-15T11:51:37.025Z,10.87
2023-04-15T11:56:39.960Z,10.85
2023-04-15T12:01:44.089Z,10.76
2023-04-15T12:06:47.231Z,10.71
2023-04-15T12:11:55.624Z,11.10
2023-04-15T12:17:00.396Z,11.52
2023-04-15T12:22:06.599Z,11.62
2023-04-15T12:27:15.478Z,11.56
2023-04-15T12:32:21.027Z,11.48
2023-04-15T12:37:24.895Z,11.56
2023-04-15T12:42:28.217Z,11.74
2023-04-15T12:47:31.330Z,11.95
2023-04-15T12:52:34.136Z,12.06
2023-04-15T12:57:36.909Z,12.19
2023-04-15T13:02:40.055Z,12.27
2023-04-15T13:07:43.079Z,12.40
2023-04-15T13:12:50.161Z,12.50
2023-04-15T13:17:53.105Z,12.62
2023-04-15T13:22:56.150Z,12.58
2023-04-15T13:27:59.362Z,12.42
2023-04-15T13:33:02.393Z,12.21
2023-04-15T13:38:05.398Z,12.02
2023-04-15T13:43:08.216Z,11.94
2023-04-15T13:48:11.202Z,11.97
2023-04-15T13:53:14.612Z,11.94
2023-04-15T13:58:17.473Z,11.92
2023-04-15T14:03:20.420Z,11.92
2023-04-15T14:08:23.679Z,12.01
2023-04-15T14:13:26.570Z,11.98
2023-04-15T14:18:30.477Z,11.89
2023-04-15T14:23:33.508Z,11.86
2023-04-15T14:28:38.387Z,11.76
2023-04-15T14:33:41.389Z,11.60
2023-04-15T14:38:44.090Z,11.58
2023-04-15T14:43:46.815Z,11.78
2023-04-15T14:48:49.579Z,12.53
2023-04-15T14:53:52.415Z,13.63
2023-04-15T14:58:55.677Z,14.64
2023-04-15T15:03:58.575Z,14.84
2023-04-15T15:09:02.167Z,14.16
2023-04-15T15:14:05.263Z,13.61
2023-04-15T15:19:08.029Z,13.46
2023-04-15T15:24:11.643Z,13.10
2023-04-15T15:29:14.375Z,12.79
2023-04-15T15:34:17.210Z,12.49
2023-04-15T15:39:19.993Z,12.25
2023-04-15T15:44:22.804Z,11.98
2023-04-15T15:49:26.066Z,12.00
2023-04-15T15:54:29.582Z,12.10
2023-04-15T15:59:33.170Z,12.05
2023-04-15T16:04:36.968Z,11.93
2023-04-15T16:09:41.225Z,11.73
2023-04-15T16:14:44.175Z,11.59
2023-04-15T16:19:58.351Z,11.50
2023-04-15T16:25:05.374Z,11.47
2023-04-15T16:30:09.212Z,11.51
2023-04-15T16:35:12.050Z,11.42
2023-04-15T16:40:15.115Z,11.25
2023-04-15T16:45:18.253Z,11.09
2023-04-15T16:50:21.006Z,10.94
2023-04-15T16:55:24.111Z,10.85
2023-04-15T17:00:27.237Z,10.74
2023-04-15T17:05:32.919Z,10.64
2023-04-15T17:10:36.278Z,10.53
2023-04-15T17:15:40.704Z,10.45
2023-04-15T17:20:43.900Z,10.33
2023-04-15T17:25:47.735Z,10.21
2023-04-15T17:30:51.023Z,10.07
2023-04-15T17:35:53.944Z,9.96
2023-04-15T17:40:56.856Z,9.85
2023-04-15T17:45:59.885Z,9.75
2023-04-15T17:51:02.877Z,9.66
2023-04-15T17:56:06.459Z,9.61
2023-04-15T18:01:09.967Z,9.58
2023-04-15T18:06:13.506Z,9.53
2023-04-15T18:11:17.668Z,9.47
2023-04-15T18:16:21.294Z,9.44
2023-04-15T18:21:25.079Z,9.41
2023-04-15T18:26:28.993Z,9.39
2023-04-15T18:31:33.198Z,9.36
2023-04-15T18:36:36.351Z,9.34
2023-04-15T18:41:39.183Z,9.32
2023-04-15T18:46:42.405Z,9.32
2023-04-15T18:51:45.585Z,9.30
2023-04-15T18:56:48.710Z,9.27
2023-04-15T19:01:51.612Z,9.23
2023-04-15T19:06:55.125Z,9.19
2023-04-15T19:11:57.914Z,9.15
2023-04-15T19:17:01.172Z,9.12
2023-04-15T19:22:04.698Z,9.06
2023-04-15T19:27:08.038Z,9.01
2023-04-15T19:32:10.914Z,8.99
2023-04-15T19:37:14.767Z,8.99
2023-04-15T19:42:18.143Z,8.97
2023-04-15T19:47:21.497Z,8.96
2023-04-15T19:52:24.597Z,8.95
2023-04-15T19:57:27.743Z,8.95
2023-04-15T20:02:30.885Z,8.95
2023-04-15T20:07:33.734Z,8.93
2023-04-15T20:12:49.232Z,8.89
2023-04-15T20:17:56.544Z,8.88
2023-04-15T20:22:59.387Z,8.79
2023-04-15T20:28:02.663Z,8.80
2023-04-15T20:33:07.996Z,8.78
2023-04-15T20:38:11.086Z,8.77
2023-04-15T20:43:13.948Z,8.76
2023-04-15T20:48:16.763Z,8.74
2023-04-15T20:53:19.954Z,8.74
2023-04-15T20:58:22.857Z,8.73
2023-04-15T21:03:25.812Z,8.72
2023-04-15T21:08:31.963Z,8.70
2023-04-15T21:13:34.894Z,8.68
2023-04-15T21:18:37.739Z,8.66
2023-04-15T21:23:42.164Z,8.63
2023-04-15T21:28:44.926Z,8.61
2023-04-15T21:33:47.870Z,8.60
2023-04-15T21:38:50.652Z,8.59
2023-04-15T21:43:53.775Z,8.60
2023-04-15T21:48:56.618Z,8.57
2023-04-15T21:53:59.629Z,8.54
2023-04-15T21:59:02.338Z,8.52
2023-04-15T22:04:07.474Z,8.51
2023-04-15T22:09:13.988Z,8.51
2023-04-15T22:14:17.404Z,8.50
2023-04-15T22:19:20.276Z,8.47
2023-04-15T22:24:33.539Z,8.45
2023-04-15T22:29:42.643Z,8.46
2023-04-15T22:34:45.442Z,8.44
2023-04-15T22:39:49.119Z,8.44
2023-04-15T22:44:52.015Z,8.44
2023-04-15T22:49:54.746Z,8.44
2023-04-15T22:54:57.931Z,8.42
2023-04-15T23:00:00.667Z,8.40
2023-04-15T23:05:11.960Z,8.38
2023-04-15T23:10:16.153Z,8.38
2023-04-15T23:15:19.024Z,8.36
2023-04-15T23:20:21.858Z,8.35
2023-04-15T23:25:24.686Z,8.35
2023-04-15T23:30:27.498Z,8.32
2023-04-15T23:35:30.432Z,8.31
2023-04-15T23:40:33.456Z,8.29
2023-04-15T23:45:36.218Z,8.26
2023-04-15T23:50:39.178Z,8.26
2023-04-15T23:55:41.970Z,8.26
